Time;durP1;ratioP1;P1;durP2;ratioP2;P2;SDS_P1;SDS_P2;PMS_P1;PMS_P2;Temp;Humidity;BMP_temperature;BMP_pressure;BME280_temperature;BME280_humidity;BME280_pressure;Samples;Min_cycle;Max_cycle;Signal;HPM_P1;HPM_P2
2022/04/01 00:01:20;;;;;;;17.67;15.87;;;7.50;99.90;;;;;;5008892;28;20205;-88
2022/04/01 00:03:46;;;;;;;16.67;14.97;;;7.50;99.90;;;;;;5002771;28;20198;-88
2022/04/01 00:06:12;;;;;;;18.43;16.50;;;7.70;99.90;;;;;;5004168;28;20750;-88
2022/04/01 00:08:38;;;;;;;16.63;14.97;;;7.80;99.90;;;;;;5001113;28;20200;-88
2022/04/01 00:11:03;;;;;;;18.73;16.93;;;7.80;99.90;;;;;;5006044;28;20194;-86
2022/04/01 00:13:29;;;;;;;20.00;17.90;;;7.80;99.90;;;;;;5001335;28;20210;-87
2022/04/01 00:15:54;;;;;;;20.83;18.70;;;7.80;99.90;;;;;;5029511;28;20193;-86
2022/04/01 00:18:20;;;;;;;19.93;17.83;;;7.80;99.90;;;;;;5020285;28;20213;-87
2022/04/01 00:20:46;;;;;;;19.37;17.43;;;7.70;99.90;;;;;;5009718;28;20285;-86
2022/04/01 00:23:12;;;;;;;20.10;18.10;;;7.60;99.90;;;;;;5005185;28;20201;-86
2022/04/01 00:25:39;;;;;;;21.93;18.60;;;7.60;99.90;;;;;;5009181;28;20280;-88
2022/04/01 00:28:05;;;;;;;20.27;18.17;;;7.70;99.90;;;;;;5017291;28;20291;-86
2022/04/01 00:30:33;;;;;;;20.67;18.47;;;7.60;99.90;;;;;;5002309;28;20201;-87
2022/04/01 00:33:00;;;;;;;19.00;17.10;;;7.60;99.90;;;;;;5008954;28;20237;-86
2022/04/01 00:35:25;;;;;;;19.90;17.90;;;7.60;99.90;;;;;;5019336;28;20178;-86
2022/04/01 00:37:52;;;;;;;19.83;17.73;;;7.70;99.90;;;;;;5008013;28;20205;-86
2022/04/01 00:40:19;;;;;;;19.13;17.10;;;7.70;99.90;;;;;;5014471;28;20183;-87
2022/04/01 00:42:45;;;;;;;21.93;18.63;;;7.60;99.90;;;;;;5021927;28;20220;-87
2022/04/01 00:45:11;;;;;;;20.80;18.57;;;7.50;99.90;;;;;;5033875;28;20657;-86
2022/04/01 00:47:38;;;;;;;22.40;20.07;;;7.40;99.90;;;;;;5022782;28;20233;-86
2022/04/01 00:50:05;;;;;;;20.77;18.60;;;7.40;99.90;;;;;;5015886;28;20182;-86
2022/04/01 00:52:32;;;;;;;22.13;19.93;;;7.50;99.90;;;;;;5007279;28;20212;-86
2022/04/01 00:54:59;;;;;;;21.93;19.73;;;7.50;99.90;;;;;;5006786;28;20224;-87
2022/04/01 00:57:26;;;;;;;20.50;18.47;;;7.50;99.90;;;;;;4995861;28;20191;-86
2022/04/01 00:59:54;;;;;;;22.57;20.27;;;7.50;99.90;;;;;;4991491;28;20279;-86
2022/04/01 01:02:20;;;;;;;21.13;18.73;;;7.30;99.90;;;;;;5015122;28;20197;-86
2022/04/01 01:04:46;;;;;;;21.03;18.80;;;7.10;99.90;;;;;;5008146;28;20189;-86
2022/04/01 01:07:13;;;;;;;19.97;17.87;;;6.90;99.90;;;;;;5005549;28;20853;-86
2022/04/01 01:09:40;;;;;;;19.17;17.17;;;7.00;99.90;;;;;;5013259;28;20236;-87
2022/04/01 01:12:06;;;;;;;21.00;18.17;;;7.00;99.90;;;;;;5016563;28;20190;-86
2022/04/01 01:14:36;;;;;;;21.30;18.50;;;7.00;99.90;;;;;;5008770;28;20756;-86
2022/04/01 01:17:07;;;;;;;20.53;18.33;;;7.00;99.90;;;;;;5004191;28;20249;-86
2022/04/01 01:19:33;;;;;;;20.83;18.40;;;7.00;99.90;;;;;;5004026;28;20182;-86
2022/04/01 01:21:59;;;;;;;20.97;18.67;;;7.10;99.90;;;;;;5006790;28;20203;-87
2022/04/01 01:24:32;;;;;;;23.40;19.80;;;7.10;99.90;;;;;;5004128;28;20190;-86
2022/04/01 01:26:59;;;;;;;20.60;18.40;;;7.20;99.90;;;;;;5012587;28;20964;-86
2022/04/01 01:29:27;;;;;;;20.90;17.60;;;7.20;99.90;;;;;;5008130;28;20273;-86
2022/04/01 01:31:55;;;;;;;21.27;18.33;;;7.30;99.90;;;;;;5011297;28;20220;-86
2022/04/01 01:34:22;;;;;;;20.43;18.40;;;7.30;99.90;;;;;;5003848;28;20625;-86
2022/04/01 01:36:48;;;;;;;18.43;16.13;;;7.30;99.90;;;;;;5006475;28;20213;-86
2022/04/01 01:39:14;;;;;;;19.47;17.40;;;7.40;99.90;;;;;;5005626;28;20784;-86
2022/04/01 01:41:41;;;;;;;20.17;18.07;;;7.50;99.90;;;;;;5007949;28;20765;-86
2022/04/01 01:44:07;;;;;;;20.10;18.10;;;7.60;99.90;;;;;;5014093;28;20248;-87
2022/04/01 01:46:34;;;;;;;22.27;18.67;;;7.60;99.90;;;;;;5004197;28;20233;-86
2022/04/01 01:49:01;;;;;;;19.70;17.70;;;7.50;99.90;;;;;;5005869;28;20178;-86
2022/04/01 01:54:45;;;;;;;21.47;19.17;;;7.30;99.90;;;;;;5010809;28;20217;-87
2022/04/01 01:57:03;;;;;;;18.80;16.97;;;7.30;99.90;;;;;;5018168;28;20210;-86
2022/04/01 01:59:29;;;;;;;20.10;18.00;;;7.40;99.90;;;;;;5007560;28;20173;-87
2022/04/01 02:01:55;;;;;;;21.33;19.07;;;7.20;99.90;;;;;;5013775;28;20553;-86
2022/04/01 02:04:23;;;;;;;20.43;18.27;;;6.90;99.90;;;;;;5009030;28;20249;-87
2022/04/01 02:06:49;;;;;;;19.57;17.57;;;6.90;99.90;;;;;;5008160;28;20225;-87
2022/04/01 02:09:16;;;;;;;20.13;17.97;;;6.70;99.90;;;;;;5008529;28;20189;-86
2022/04/01 02:11:43;;;;;;;19.57;17.57;;;6.80;99.90;;;;;;5012459;28;20217;-87
2022/04/01 02:14:10;;;;;;;19.90;17.00;;;6.80;99.90;;;;;;5015440;28;20774;-86
2022/04/01 02:16:37;;;;;;;20.43;18.20;;;6.90;99.90;;;;;;5016869;28;20288;-87
2022/04/01 02:19:02;;;;;;;21.43;19.13;;;6.80;99.90;;;;;;5015932;28;20704;-87
2022/04/01 02:21:29;;;;;;;20.63;17.93;;;6.80;99.90;;;;;;5021781;28;20293;-86
2022/04/01 02:23:55;;;;;;;21.20;18.10;;;6.80;99.90;;;;;;5016206;28;20181;-86
2022/04/01 02:26:21;;;;;;;19.07;17.03;;;6.80;99.90;;;;;;5008968;28;20294;-86
2022/04/01 02:28:47;;;;;;;21.37;19.07;;;6.70;99.90;;;;;;5011476;28;20185;-86
2022/04/01 02:31:18;;;;;;;21.27;18.97;;;6.90;99.90;;;;;;5013622;28;20556;-86
2022/04/01 02:33:43;;;;;;;19.90;17.40;;;6.90;99.90;;;;;;5010596;28;20225;-87
2022/04/01 02:36:13;;;;;;;21.30;18.73;;;7.00;99.90;;;;;;5008411;28;20646;-86
2022/04/01 02:38:40;;;;;;;21.47;19.23;;;7.00;99.90;;;;;;5011072;28;20664;-86
2022/04/01 02:41:08;;;;;;;20.20;18.10;;;7.00;99.90;;;;;;5017876;28;20182;-86
2022/04/01 02:43:35;;;;;;;19.50;17.50;;;7.10;99.90;;;;;;5011817;28;20193;-86
2022/04/01 02:46:02;;;;;;;20.37;18.17;;;7.00;99.90;;;;;;5014146;28;20666;-87
2022/04/01 02:48:31;;;;;;;20.63;18.27;;;7.00;99.90;;;;;;5015126;28;20209;-87
2022/04/01 02:50:57;;;;;;;19.20;17.10;;;6.90;99.90;;;;;;5009201;28;20265;-86
2022/04/01 02:53:23;;;;;;;20.10;17.93;;;6.90;99.90;;;;;;5015627;28;20473;-86
2022/04/01 02:55:49;;;;;;;19.73;17.63;;;6.90;99.90;;;;;;5010815;28;20193;-87
2022/04/01 02:58:15;;;;;;;19.30;17.30;;;6.90;99.90;;;;;;5008200;28;20198;-86
2022/04/01 03:00:40;;;;;;;19.87;17.87;;;6.90;99.90;;;;;;5004958;28;20240;-86
2022/04/01 03:03:08;;;;;;;19.93;17.83;;;6.90;99.90;;;;;;5012795;28;20193;-86
2022/04/01 03:05:38;;;;;;;18.93;16.97;;;6.80;99.20;;;;;;5014815;28;20193;-86
2022/04/01 03:08:05;;;;;;;20.33;18.23;;;6.80;99.90;;;;;;5014085;28;20554;-87
2022/04/01 03:10:35;;;;;;;21.10;18.30;;;6.90;99.90;;;;;;5001859;28;20198;-86
2022/04/01 03:13:01;;;;;;;18.43;16.53;;;6.90;99.90;;;;;;5010906;28;20205;-86
2022/04/01 03:15:28;;;;;;;18.73;16.83;;;6.90;99.90;;;;;;5002213;28;20735;-86
2022/04/01 03:17:55;;;;;;;20.17;18.07;;;7.00;99.50;;;;;;5014590;28;20273;-86
2022/04/01 03:20:21;;;;;;;18.93;17.03;;;7.00;99.20;;;;;;5016093;28;20184;-86
2022/04/01 03:22:47;;;;;;;18.70;16.77;;;7.00;98.00;;;;;;5021044;28;20205;-86
2022/04/01 03:25:16;;;;;;;18.67;16.83;;;6.80;97.60;;;;;;5013497;28;20677;-86
2022/04/01 03:27:42;;;;;;;18.73;16.73;;;6.80;99.20;;;;;;5010965;28;20205;-86
2022/04/01 03:30:10;;;;;;;18.23;16.43;;;6.70;98.40;;;;;;5013777;28;20195;-86
2022/04/01 03:32:37;;;;;;;18.27;16.37;;;6.70;99.50;;;;;;5014688;28;20238;-86
2022/04/01 03:35:05;;;;;;;18.33;16.50;;;6.70;97.80;;;;;;5009050;28;20628;-86
2022/04/01 03:37:30;;;;;;;16.60;14.90;;;6.60;97.90;;;;;;5018157;28;20305;-87
2022/04/01 03:39:58;;;;;;;18.53;16.63;;;6.60;99.60;;;;;;5018128;28;20225;-87
2022/04/01 03:42:25;;;;;;;18.90;17.00;;;6.60;97.60;;;;;;5009208;28;20855;-87
2022/04/01 03:44:51;;;;;;;18.57;16.70;;;6.50;99.10;;;;;;5008643;28;20194;-87
2022/04/01 03:47:23;;;;;;;16.83;15.13;;;6.60;99.40;;;;;;5007342;28;20233;-87
2022/04/01 03:49:58;;;;;;;17.63;15.93;;;6.70;99.70;;;;;;4999262;28;20221;-87
2022/04/01 03:52:25;;;;;;;16.63;14.90;;;6.80;98.40;;;;;;5006510;28;20209;-87
2022/04/01 03:54:56;;;;;;;18.10;16.30;;;6.80;98.20;;;;;;5006848;28;20239;-87
2022/04/01 03:57:33;;;;;;;18.33;16.53;;;6.80;99.00;;;;;;5007087;28;20203;-87
2022/04/01 04:00:00;;;;;;;18.57;16.77;;;6.70;97.60;;;;;;5010225;28;20676;-87
2022/04/01 04:02:26;;;;;;;20.87;18.87;;;6.70;98.00;;;;;;5011269;28;20194;-87
2022/04/01 04:04:56;;;;;;;18.27;16.57;;;6.60;97.00;;;;;;5007406;28;20203;-87
2022/04/01 04:07:24;;;;;;;20.03;17.93;;;6.60;98.30;;;;;;5007757;28;20301;-87
2022/04/01 04:09:50;;;;;;;20.60;18.50;;;6.60;98.10;;;;;;5013683;28;20204;-87
2022/04/01 04:12:18;;;;;;;22.87;20.67;;;6.40;98.20;;;;;;5014996;28;20197;-88
2022/04/01 04:14:44;;;;;;;24.20;21.80;;;6.30;98.80;;;;;;5013621;28;20192;-87
2022/04/01 04:17:14;;;;;;;25.27;22.67;;;6.30;99.70;;;;;;5016612;28;20229;-87
2022/04/01 04:20:18;;;;;;;23.77;21.37;;;6.40;99.10;;;;;;5027029;28;20577;-87
2022/04/01 04:23:01;;;;;;;21.53;19.33;;;6.30;98.60;;;;;;5016535;28;20197;-87
2022/04/01 04:25:37;;;;;;;23.90;21.33;;;6.30;99.40;;;;;;5001664;28;20586;-87
2022/04/01 04:28:09;;;;;;;21.33;17.90;;;6.40;99.20;;;;;;5026458;28;20241;-87
2022/04/01 04:30:49;;;;;;;20.27;18.17;;;6.20;99.30;;;;;;5006580;28;20217;-87
2022/04/01 04:33:17;;;;;;;19.10;17.10;;;6.30;99.00;;;;;;5009693;28;20206;-87
2022/04/01 04:35:48;;;;;;;20.17;18.17;;;6.40;99.40;;;;;;5004477;28;20178;-87
2022/04/01 04:38:16;;;;;;;20.97;18.87;;;6.50;98.40;;;;;;5006796;28;20202;-86
2022/04/01 04:40:42;;;;;;;20.83;18.77;;;6.50;98.20;;;;;;5007249;28;20229;-87
2022/04/01 04:43:10;;;;;;;20.63;18.47;;;6.60;97.70;;;;;;5016643;28;20209;-87
2022/04/01 04:45:36;;;;;;;21.67;19.47;;;6.60;97.50;;;;;;5009199;28;20182;-86
2022/04/01 04:48:03;;;;;;;19.63;17.63;;;6.50;97.10;;;;;;5011659;28;20222;-86
2022/04/01 04:50:29;;;;;;;21.97;19.60;;;6.50;96.70;;;;;;5009160;28;20202;-86
2022/04/01 04:52:56;;;;;;;20.60;18.60;;;6.50;96.90;;;;;;5010595;28;20217;-85
2022/04/01 04:55:24;;;;;;;21.03;19.03;;;6.40;97.00;;;;;;5010476;28;20181;-86
2022/04/01 04:57:52;;;;;;;22.53;20.20;;;6.30;97.60;;;;;;5010750;28;20194;-87
2022/04/01 05:00:19;;;;;;;20.10;18.00;;;6.20;98.30;;;;;;5010241;28;20186;-87
2022/04/01 05:03:24;;;;;;;20.23;18.13;;;6.20;97.50;;;;;;5014378;28;20293;-87
2022/04/01 05:05:51;;;;;;;19.10;17.13;;;6.20;97.10;;;;;;5014221;28;20264;-87
2022/04/01 05:08:30;;;;;;;19.97;17.93;;;6.10;97.70;;;;;;5011322;28;20220;-87
2022/04/01 05:11:13;;;;;;;20.53;18.43;;;6.20;98.80;;;;;;5015407;28;20560;-87
2022/04/01 05:14:11;;;;;;;19.73;17.83;;;6.20;97.30;;;;;;5013276;28;20200;-87
2022/04/01 05:16:54;;;;;;;23.43;21.20;;;6.30;96.80;;;;;;5016530;28;20356;-87
2022/04/01 05:19:27;;;;;;;19.23;17.23;;;6.20;96.50;;;;;;5016993;28;20276;-87
2022/04/01 05:22:03;;;;;;;19.90;17.93;;;6.20;97.80;;;;;;5018989;28;20187;-87
2022/04/01 05:24:42;;;;;;;20.43;18.37;;;6.20;97.70;;;;;;5019966;28;20782;-87
2022/04/01 05:27:24;;;;;;;19.07;17.17;;;6.10;96.50;;;;;;5019399;28;20197;-86
2022/04/01 05:30:18;;;;;;;19.73;17.73;;;5.90;97.80;;;;;;5021988;28;20263;-87
2022/04/01 05:32:58;;;;;;;18.93;16.97;;;6.00;98.60;;;;;;5019381;28;20667;-86
2022/04/01 05:35:30;;;;;;;19.03;16.87;;;6.00;97.10;;;;;;5018921;28;20189;-86
2022/04/01 05:37:58;;;;;;;18.43;16.53;;;5.90;98.00;;;;;;5029101;28;20216;-86
2022/04/01 05:40:24;;;;;;;19.40;17.40;;;5.80;97.40;;;;;;5023846;28;20216;-86
2022/04/01 05:42:53;;;;;;;18.77;16.87;;;5.70;97.80;;;;;;5018296;28;20194;-86
2022/04/01 05:45:20;;;;;;;19.97;17.73;;;5.60;98.00;;;;;;5026056;28;20267;-86
2022/04/01 05:47:47;;;;;;;20.13;18.03;;;5.50;97.70;;;;;;5031007;28;20213;-86
2022/04/01 05:50:18;;;;;;;19.50;17.40;;;5.40;97.30;;;;;;5018825;28;20238;-86
2022/04/01 05:52:49;;;;;;;21.03;18.93;;;5.30;97.90;;;;;;5019849;28;20221;-85
2022/04/01 05:55:17;;;;;;;18.50;16.50;;;5.40;98.20;;;;;;5014495;28;20216;-86
2022/04/01 05:57:44;;;;;;;17.70;16.00;;;5.40;97.50;;;;;;5020286;28;20296;-86
2022/04/01 06:00:13;;;;;;;16.70;15.07;;;5.50;96.00;;;;;;5018501;28;20178;-86
2022/04/01 06:03:12;;;;;;;17.80;16.10;;;5.50;95.50;;;;;;5020885;28;20182;-86
2022/04/01 06:06:04;;;;;;;18.47;16.67;;;5.50;95.30;;;;;;5017629;28;20204;-85
2022/04/01 06:09:22;;;;;;;18.37;16.60;;;5.60;96.20;;;;;;5010247;28;20174;-86
2022/04/01 06:12:07;;;;;;;18.00;16.30;;;5.50;94.50;;;;;;4999383;28;20644;-86
2022/04/01 06:14:49;;;;;;;27.03;23.57;;;5.60;94.80;;;;;;5002846;28;20519;-85
2022/04/01 06:17:23;;;;;;;20.53;18.43;;;5.50;94.30;;;;;;5012169;28;20206;-86
2022/04/01 06:19:51;;;;;;;19.60;17.50;;;5.40;94.40;;;;;;5020616;28;20751;-87
2022/04/01 06:22:18;;;;;;;17.53;15.73;;;5.50;94.10;;;;;;5014255;28;20798;-86
2022/04/01 06:24:52;;;;;;;25.10;22.40;;;5.40;93.80;;;;;;5016090;28;20269;-87
2022/04/01 06:27:41;;;;;;;24.50;21.90;;;5.50;93.70;;;;;;5006554;28;20292;-87
2022/04/01 06:30:08;;;;;;;28.10;23.30;;;5.50;93.60;;;;;;5013310;28;20254;-86
2022/04/01 06:32:55;;;;;;;20.70;18.57;;;5.50;94.90;;;;;;5019588;28;20216;-87
2022/04/01 06:35:35;;;;;;;19.27;17.27;;;5.60;93.60;;;;;;5016951;28;20574;-86
2022/04/01 06:38:05;;;;;;;43.17;34.97;;;5.60;92.90;;;;;;5005828;28;20201;-86
2022/04/01 06:40:58;;;;;;;27.33;20.80;;;5.60;92.60;;;;;;5017399;28;20194;-87
2022/04/01 06:43:27;;;;;;;22.33;19.33;;;5.50;92.80;;;;;;5015857;28;20190;-87
2022/04/01 06:45:53;;;;;;;22.50;20.10;;;5.50;93.20;;;;;;5000623;28;20191;-86
2022/04/01 06:48:19;;;;;;;19.63;17.53;;;5.40;92.90;;;;;;5001077;28;20221;-87
2022/04/01 06:50:49;;;;;;;19.07;17.07;;;5.40;93.80;;;;;;5005885;28;20189;-87
2022/04/01 06:53:19;;;;;;;16.77;15.10;;;5.30;93.80;;;;;;5013971;28;20202;-87
2022/04/01 06:55:47;;;;;;;18.57;15.80;;;5.30;94.10;;;;;;5015806;28;20205;-87
2022/04/01 06:58:13;;;;;;;20.73;18.40;;;5.40;93.70;;;;;;5016667;28;20253;-87
2022/04/01 07:00:40;;;;;;;17.43;15.83;;;5.40;93.60;;;;;;5016588;28;20208;-88
2022/04/01 07:03:07;;;;;;;17.43;15.63;;;5.60;93.90;;;;;;5018559;28;20177;-87
2022/04/01 07:05:36;;;;;;;18.13;16.33;;;5.60;93.20;;;;;;5010331;28;20183;-87
2022/04/01 07:08:03;;;;;;;19.03;17.00;;;5.70;93.40;;;;;;5021016;28;20200;-86
2022/04/01 07:10:30;;;;;;;22.33;19.93;;;5.70;91.80;;;;;;5004172;28;20190;-86
2022/04/01 07:12:56;;;;;;;17.73;15.93;;;5.70;91.80;;;;;;5017145;28;20209;-87
2022/04/01 07:15:22;;;;;;;19.53;17.43;;;5.60;92.10;;;;;;5012571;28;20178;-86
2022/04/01 07:17:48;;;;;;;20.03;17.60;;;5.70;93.00;;;;;;5017336;28;20197;-86
2022/04/01 07:20:14;;;;;;;18.70;16.70;;;5.80;91.20;;;;;;5019819;28;20196;-87
2022/04/01 07:22:41;;;;;;;17.70;15.90;;;5.70;91.50;;;;;;5018545;28;20206;-87
2022/04/01 07:25:08;;;;;;;18.13;15.70;;;5.60;91.90;;;;;;5010941;28;20249;-86
2022/04/01 07:27:34;;;;;;;17.53;15.70;;;5.70;93.00;;;;;;5006041;28;20224;-86
2022/04/01 07:30:00;;;;;;;18.30;16.43;;;5.80;92.30;;;;;;5014739;28;20205;-87
2022/04/01 07:32:31;;;;;;;14.80;13.40;;;5.90;91.10;;;;;;5017393;28;20190;-87
2022/04/01 07:34:58;;;;;;;15.40;13.90;;;5.80;90.10;;;;;;5005190;28;20217;-87
2022/04/01 07:37:24;;;;;;;15.03;13.63;;;5.70;90.00;;;;;;4998378;28;20224;-87
2022/04/01 07:39:52;;;;;;;14.23;12.90;;;5.60;90.30;;;;;;5007764;28;20182;-87
2022/04/01 07:42:20;;;;;;;13.63;12.33;;;5.60;91.10;;;;;;5011470;28;20196;-87
2022/04/01 07:44:46;;;;;;;13.70;12.40;;;5.70;90.60;;;;;;5014717;28;20197;-87
2022/04/01 07:47:14;;;;;;;13.47;12.17;;;5.70;90.20;;;;;;5010441;28;20221;-86
2022/04/01 07:49:40;;;;;;;14.23;12.80;;;5.60;90.40;;;;;;5007575;28;20220;-85
2022/04/01 07:52:10;;;;;;;14.43;13.13;;;5.60;90.60;;;;;;5007330;28;20209;-87
2022/04/01 07:54:40;;;;;;;14.30;12.87;;;5.60;90.00;;;;;;5011776;28;20193;-86
2022/04/01 07:57:07;;;;;;;13.63;12.33;;;5.50;90.30;;;;;;5014523;28;20204;-86
2022/04/01 07:59:33;;;;;;;12.73;11.43;;;5.40;91.30;;;;;;5017258;28;20288;-87
2022/04/01 08:02:00;;;;;;;15.17;12.37;;;5.50;91.20;;;;;;5013836;28;20181;-85
2022/04/01 08:04:27;;;;;;;14.93;13.43;;;5.60;90.80;;;;;;5026692;28;20243;-88
2022/04/01 08:06:57;;;;;;;13.67;12.37;;;5.70;91.20;;;;;;5019828;28;20220;-88
2022/04/01 08:09:26;;;;;;;13.97;12.47;;;5.70;90.30;;;;;;5011736;28;20312;-87
2022/04/01 08:11:53;;;;;;;12.70;11.43;;;5.70;90.20;;;;;;5011113;28;20564;-86
2022/04/01 08:14:19;;;;;;;12.90;11.60;;;5.70;90.90;;;;;;5015910;28;20722;-86
2022/04/01 08:16:45;;;;;;;13.37;11.90;;;5.80;89.60;;;;;;5018835;28;20213;-86
2022/04/01 08:19:12;;;;;;;12.97;11.67;;;5.80;88.50;;;;;;5010935;28;20583;-87
2022/04/01 08:21:38;;;;;;;12.67;11.37;;;5.90;89.50;;;;;;5004023;28;20182;-87
2022/04/01 08:24:05;;;;;;;11.20;10.07;;;5.90;87.90;;;;;;5017210;28;20214;-87
2022/04/01 08:26:30;;;;;;;11.23;10.07;;;5.90;87.40;;;;;;5002864;28;20202;-87
2022/04/01 08:28:56;;;;;;;10.57;9.47;;;6.00;87.70;;;;;;5003201;28;20186;-87
2022/04/01 08:31:24;;;;;;;11.20;10.10;;;6.00;86.30;;;;;;5002256;28;20182;-86
2022/04/01 08:33:53;;;;;;;11.93;10.73;;;6.00;85.80;;;;;;5009562;28;20549;-87
2022/04/01 08:36:19;;;;;;;11.70;10.60;;;5.90;86.20;;;;;;5018857;28;20188;-85
2022/04/01 08:38:45;;;;;;;13.00;11.70;;;5.80;87.00;;;;;;5018224;28;20243;-85
2022/04/01 08:41:15;;;;;;;11.47;10.37;;;5.90;86.30;;;;;;5025220;28;20190;-85
2022/04/01 08:43:42;;;;;;;13.33;12.03;;;5.80;86.60;;;;;;5014534;28;20583;-85
2022/04/01 08:46:09;;;;;;;13.33;12.03;;;5.70;87.80;;;;;;5013053;28;20209;-85
2022/04/01 08:48:36;;;;;;;12.90;11.60;;;5.70;88.20;;;;;;5011125;28;20633;-85
2022/04/01 08:51:02;;;;;;;13.20;11.90;;;5.80;88.90;;;;;;5012294;28;20185;-85
2022/04/01 08:53:28;;;;;;;15.27;12.20;;;5.70;88.70;;;;;;5016929;28;20217;-85
2022/04/01 08:55:55;;;;;;;13.10;11.67;;;5.70;89.60;;;;;;5014374;28;20245;-85
2022/04/01 08:58:23;;;;;;;12.97;11.77;;;5.60;88.80;;;;;;5012121;28;20209;-85
2022/04/01 09:00:50;;;;;;;13.37;12.13;;;5.50;89.70;;;;;;5020469;28;20185;-85
2022/04/01 09:03:18;;;;;;;14.03;12.63;;;5.60;90.60;;;;;;5011105;28;20197;-85
2022/04/01 09:05:50;;;;;;;12.60;11.43;;;5.70;91.00;;;;;;5011156;28;20182;-85
2022/04/01 09:08:35;;;;;;;13.70;12.40;;;5.80;90.30;;;;;;5006097;28;20202;-85
2022/04/01 09:11:11;;;;;;;13.40;12.10;;;5.80;89.50;;;;;;5010719;28;20187;-85
2022/04/01 09:13:47;;;;;;;14.37;12.97;;;5.80;90.40;;;;;;5005254;28;20197;-85
2022/04/01 09:16:38;;;;;;;13.80;12.40;;;6.00;90.50;;;;;;5014451;28;20200;-85
2022/04/01 09:19:06;;;;;;;13.73;12.43;;;5.80;88.90;;;;;;5016859;28;20236;-85
2022/04/01 09:21:39;;;;;;;14.03;12.63;;;5.70;89.70;;;;;;5012257;28;20186;-85
2022/04/01 09:24:05;;;;;;;12.40;11.27;;;5.60;90.40;;;;;;5021304;28;20185;-85
2022/04/01 09:26:37;;;;;;;12.07;10.97;;;5.60;91.00;;;;;;5025514;28;20750;-85
2022/04/01 09:29:06;;;;;;;12.63;11.43;;;5.70;90.70;;;;;;5024186;28;20211;-85
2022/04/01 09:31:35;;;;;;;11.73;10.63;;;5.70;90.30;;;;;;5025302;28;20185;-84
2022/04/01 09:34:01;;;;;;;12.30;11.20;;;5.70;89.40;;;;;;5022797;28;20202;-85
2022/04/01 09:36:36;;;;;;;11.57;10.47;;;5.60;88.90;;;;;;5018756;28;20206;-85
2022/04/01 09:39:13;;;;;;;11.07;10.07;;;5.60;89.70;;;;;;5015649;28;20212;-85
2022/04/01 09:41:45;;;;;;;11.17;10.17;;;5.70;88.00;;;;;;5013850;28;20185;-85
2022/04/01 09:44:15;;;;;;;10.90;9.83;;;5.70;88.80;;;;;;5021342;28;20268;-85
2022/04/01 09:46:46;;;;;;;10.60;9.53;;;5.70;88.50;;;;;;5021689;28;20213;-85
2022/04/01 09:49:14;;;;;;;10.10;9.20;;;5.70;88.90;;;;;;5022103;28;20188;-85
2022/04/01 09:51:44;;;;;;;10.53;9.60;;;5.70;88.50;;;;;;5019265;28;20192;-85
2022/04/01 09:54:11;;;;;;;11.03;9.93;;;5.70;88.90;;;;;;5013956;28;20198;-85
2022/04/01 09:56:40;;;;;;;9.87;8.97;;;5.70;88.20;;;;;;5018061;28;20292;-85
2022/04/01 09:59:06;;;;;;;10.00;9.10;;;5.60;88.70;;;;;;5007767;28;20186;-85
2022/04/01 10:01:34;;;;;;;10.03;9.03;;;5.50;88.60;;;;;;5012382;28;20182;-85
2022/04/01 10:04:00;;;;;;;10.47;9.33;;;5.40;89.90;;;;;;5013347;28;20182;-85
2022/04/01 10:06:27;;;;;;;10.43;9.53;;;5.40;91.60;;;;;;5014929;28;20845;-85
2022/04/01 10:08:57;;;;;;;12.00;9.37;;;5.40;90.40;;;;;;5008256;28;20653;-85
2022/04/01 10:11:24;;;;;;;10.03;9.03;;;5.50;89.70;;;;;;5021832;28;20181;-85
2022/04/01 10:13:52;;;;;;;9.77;8.80;;;5.30;89.60;;;;;;5013998;28;20210;-85
2022/04/01 10:16:19;;;;;;;9.77;8.87;;;5.40;88.20;;;;;;5011246;28;20201;-85
2022/04/01 10:18:47;;;;;;;10.17;9.20;;;5.40;88.90;;;;;;5016533;28;20266;-85
2022/04/01 10:21:17;;;;;;;9.47;8.57;;;5.50;87.50;;;;;;5012323;28;20186;-85
2022/04/01 10:23:59;;;;;;;9.77;8.83;;;5.50;87.90;;;;;;5012499;28;20719;-85
2022/04/01 10:26:32;;;;;;;11.07;10.07;;;5.60;87.00;;;;;;5020260;28;20441;-85
2022/04/01 10:28:59;;;;;;;9.80;8.90;;;5.70;87.20;;;;;;5013137;28;20186;-85
2022/04/01 10:31:25;;;;;;;12.17;8.43;;;5.70;85.90;;;;;;5020491;28;20181;-86
2022/04/01 10:33:51;;;;;;;10.50;9.57;;;5.70;87.30;;;;;;5011740;28;20229;-86
2022/04/01 10:36:26;;;;;;;10.73;9.70;;;5.60;86.90;;;;;;5012141;28;20265;-86
2022/04/01 10:39:07;;;;;;;10.50;9.50;;;5.60;86.80;;;;;;5019036;28;20177;-85
2022/04/01 10:41:34;;;;;;;11.60;10.40;;;5.40;87.10;;;;;;5019726;28;20181;-85
2022/04/01 10:44:03;;;;;;;9.90;9.03;;;5.40;86.90;;;;;;5010850;28;20196;-85
2022/04/01 10:46:29;;;;;;;10.10;9.20;;;5.50;87.70;;;;;;5021143;28;20328;-87
2022/04/01 10:52:11;;;;;;;12.73;10.23;;;5.60;87.00;;;;;;5017805;28;20247;-86
2022/04/01 10:54:42;;;;;;;10.87;9.80;;;5.60;86.30;;;;;;5013880;28;20289;-86
2022/04/01 10:57:14;;;;;;;11.30;10.07;;;5.70;85.60;;;;;;5018925;28;20589;-86
2022/04/01 10:59:44;;;;;;;9.97;9.07;;;5.70;86.40;;;;;;5008744;28;20181;-87
2022/04/01 11:02:18;;;;;;;11.27;10.07;;;5.70;85.30;;;;;;5008244;28;20178;-86
2022/04/01 11:04:45;;;;;;;10.40;9.40;;;5.80;85.70;;;;;;5011289;28;20186;-87
2022/04/01 11:07:21;;;;;;;10.50;9.47;;;5.70;85.60;;;;;;5012905;28;20304;-86
2022/04/01 11:09:49;;;;;;;10.80;9.73;;;5.70;83.70;;;;;;5007546;28;20186;-86
2022/04/01 11:12:14;;;;;;;11.40;10.20;;;5.60;84.90;;;;;;5018349;28;20189;-86
2022/04/01 11:15:09;;;;;;;12.43;11.23;;;5.50;86.20;;;;;;5016816;28;20229;-86
2022/04/01 11:17:34;;;;;;;13.40;12.00;;;5.30;87.60;;;;;;5009691;28;20217;-86
2022/04/01 11:20:10;;;;;;;12.80;11.53;;;5.40;89.40;;;;;;5020964;28;20173;-86
2022/04/01 11:22:38;;;;;;;12.30;11.07;;;5.40;87.90;;;;;;5020355;28;20293;-86
2022/04/01 11:25:05;;;;;;;11.50;9.67;;;5.30;90.10;;;;;;5020278;28;20201;-86
2022/04/01 11:27:35;;;;;;;11.30;10.20;;;5.40;90.00;;;;;;5020936;28;20197;-86
2022/04/01 11:30:15;;;;;;;10.70;9.60;;;5.60;88.90;;;;;;5011527;28;20169;-86
2022/04/01 11:32:44;;;;;;;10.97;9.87;;;5.60;87.10;;;;;;5019211;28;20210;-87
2022/04/01 11:35:13;;;;;;;11.53;9.97;;;5.60;88.00;;;;;;5020341;28;20182;-86
2022/04/01 11:37:40;;;;;;;10.17;9.27;;;5.40;84.80;;;;;;5023692;28;20278;-86
2022/04/01 11:40:15;;;;;;;11.07;9.47;;;5.20;86.80;;;;;;5025455;28;20178;-86
2022/04/01 11:43:02;;;;;;;9.90;8.73;;;5.20;86.90;;;;;;5015025;28;20722;-86
2022/04/01 11:45:38;;;;;;;10.30;9.20;;;5.20;85.70;;;;;;5009860;28;20185;-86
2022/04/01 11:48:36;;;;;;;10.50;9.43;;;5.20;85.40;;;;;;5021123;28;20255;-86
2022/04/01 11:51:13;;;;;;;10.07;9.07;;;5.10;85.00;;;;;;5013523;28;20680;-86
2022/04/01 11:53:47;;;;;;;9.93;8.97;;;5.10;85.30;;;;;;5003518;28;20710;-87
2022/04/01 11:56:14;;;;;;;9.70;8.70;;;5.00;86.10;;;;;;4998036;28;20166;-86
2022/04/01 11:58:51;;;;;;;10.03;8.97;;;5.00;85.60;;;;;;5009510;28;20185;-86
2022/04/01 12:01:18;;;;;;;10.63;9.53;;;5.10;86.90;;;;;;5011314;28;20181;-86
2022/04/01 12:03:44;;;;;;;11.37;9.60;;;5.10;86.30;;;;;;5009781;28;20211;-86
2022/04/01 12:08:54;;;;;;;10.00;8.93;;;5.20;86.00;;;;;;5008915;28;20224;-86
2022/04/01 12:11:20;;;;;;;11.17;9.73;;;5.20;83.80;;;;;;5013394;28;20175;-86
2022/04/01 12:13:50;;;;;;;9.90;8.93;;;5.30;83.80;;;;;;5013988;28;20296;-86
2022/04/01 12:16:18;;;;;;;9.73;8.83;;;5.40;83.70;;;;;;5008015;28;20661;-86
2022/04/01 12:18:48;;;;;;;10.63;8.83;;;5.40;83.60;;;;;;5004095;28;20560;-86
2022/04/01 12:21:21;;;;;;;9.83;8.93;;;5.30;83.80;;;;;;5017873;28;20189;-86
2022/04/01 12:23:49;;;;;;;10.17;9.10;;;5.50;84.10;;;;;;5001503;28;20240;-86
2022/04/01 12:26:20;;;;;;;11.43;9.33;;;5.40;84.20;;;;;;5016970;28;20232;-87
2022/04/01 12:28:49;;;;;;;11.00;9.93;;;5.30;83.90;;;;;;5017878;28;20177;-86
2022/04/01 12:31:26;;;;;;;10.83;9.67;;;5.30;83.30;;;;;;4999168;28;20179;-86
2022/04/01 12:33:54;;;;;;;11.97;10.83;;;5.30;85.70;;;;;;4998144;28;20293;-86
2022/04/01 12:36:32;;;;;;;10.83;9.83;;;5.20;84.70;;;;;;5007629;28;20727;-86
2022/04/01 12:39:03;;;;;;;10.73;9.73;;;5.30;87.60;;;;;;5014972;28;20221;-86
2022/04/01 12:41:29;;;;;;;12.17;10.97;;;5.30;84.10;;;;;;5011666;28;20179;-86
2022/04/01 12:43:56;;;;;;;11.20;10.10;;;5.40;85.20;;;;;;5003232;28;20183;-87
2022/04/01 12:46:31;;;;;;;12.07;9.83;;;5.40;85.40;;;;;;5007330;28;20233;-86
2022/04/01 12:49:00;;;;;;;11.83;10.63;;;5.30;86.20;;;;;;5016555;28;20224;-86
2022/04/01 12:51:25;;;;;;;10.90;9.83;;;5.30;85.20;;;;;;5011608;28;20210;-86
2022/04/01 12:54:03;;;;;;;10.90;9.87;;;5.20;86.80;;;;;;5007823;28;20206;-86
2022/04/01 12:56:50;;;;;;;12.60;11.33;;;5.30;85.90;;;;;;5015791;28;20206;-86
2022/04/01 12:59:19;;;;;;;11.53;10.40;;;5.20;87.30;;;;;;5009321;28;20189;-86
2022/04/01 13:01:54;;;;;;;10.93;9.90;;;5.20;86.90;;;;;;5015230;28;20771;-86